sensor_id;sensor_type;location;lat;lon;timestamp;temperature;humidity
18002;DHT22;9126;48.160;17.130;2022-11-27T00:01:18;8.80;78.10
18002;DHT22;9126;48.160;17.130;2022-11-27T00:03:46;8.80;78.20
18002;DHT22;9126;48.160;17.130;2022-11-27T00:06:14;8.80;78.30
18002;DHT22;9126;48.160;17.130;2022-11-27T00:08:43;8.70;78.40
18002;DHT22;9126;48.160;17.130;2022-11-27T00:11:13;8.70;78.50
18002;DHT22;9126;48.160;17.130;2022-11-27T00:13:42;8.60;78.60
18002;DHT22;9126;48.160;17.130;2022-11-27T00:16:09;8.70;78.70
18002;DHT22;9126;48.160;17.130;2022-11-27T00:18:37;8.70;78.80
18002;DHT22;9126;48.160;17.130;2022-11-27T00:21:06;8.80;79.00
18002;DHT22;9126;48.160;17.130;2022-11-27T00:23:33;8.80;78.90
18002;DHT22;9126;48.160;17.130;2022-11-27T00:26:01;8.90;78.90
18002;DHT22;9126;48.160;17.130;2022-11-27T00:28:30;8.90;79.70
18002;DHT22;9126;48.160;17.130;2022-11-27T00:30:59;8.90;79.00
18002;DHT22;9126;48.160;17.130;2022-11-27T00:33:26;9.00;79.00
18002;DHT22;9126;48.160;17.130;2022-11-27T00:35:54;9.00;79.00
18002;DHT22;9126;48.160;17.130;2022-11-27T00:38:21;9.10;79.10
18002;DHT22;9126;48.160;17.130;2022-11-27T00:40:48;9.10;79.00
18002;DHT22;9126;48.160;17.130;2022-11-27T00:43:15;9.10;79.00
18002;DHT22;9126;48.160;17.130;2022-11-27T00:45:41;9.10;78.90
18002;DHT22;9126;48.160;17.130;2022-11-27T00:48:10;9.10;78.90
18002;DHT22;9126;48.160;17.130;2022-11-27T00:50:37;9.10;78.90
18002;DHT22;9126;48.160;17.130;2022-11-27T00:53:04;9.10;78.80
18002;DHT22;9126;48.160;17.130;2022-11-27T00:55:31;9.10;78.80
18002;DHT22;9126;48.160;17.130;2022-11-27T00:57:58;9.10;78.60
18002;DHT22;9126;48.160;17.130;2022-11-27T01:00:25;9.10;78.60
18002;DHT22;9126;48.160;17.130;2022-11-27T01:02:52;9.10;78.50
18002;DHT22;9126;48.160;17.130;2022-11-27T01:05:20;9.10;78.50
18002;DHT22;9126;48.160;17.130;2022-11-27T01:07:47;9.20;78.40
18002;DHT22;9126;48.160;17.130;2022-11-27T01:10:14;9.10;78.20
18002;DHT22;9126;48.160;17.130;2022-11-27T01:12:41;9.10;78.20
18002;DHT22;9126;48.160;17.130;2022-11-27T01:15:09;9.10;78.10
18002;DHT22;9126;48.160;17.130;2022-11-27T01:17:36;9.10;78.10
18002;DHT22;9126;48.160;17.130;2022-11-27T01:20:04;9.10;78.00
18002;DHT22;9126;48.160;17.130;2022-11-27T01:22:33;9.10;77.90
18002;DHT22;9126;48.160;17.130;2022-11-27T01:25:00;9.10;77.90
18002;DHT22;9126;48.160;17.130;2022-11-27T01:27:27;9.10;77.80
18002;DHT22;9126;48.160;17.130;2022-11-27T01:29:55;9.20;77.80
18002;DHT22;9126;48.160;17.130;2022-11-27T01:32:22;9.20;77.70
18002;DHT22;9126;48.160;17.130;2022-11-27T01:34:49;9.20;77.50
18002;DHT22;9126;48.160;17.130;2022-11-27T01:37:17;9.20;77.50
18002;DHT22;9126;48.160;17.130;2022-11-27T01:39:45;9.20;77.40
18002;DHT22;9126;48.160;17.130;2022-11-27T01:42:12;9.20;77.40
18002;DHT22;9126;48.160;17.130;2022-11-27T01:44:52;9.10;77.30
18002;DHT22;9126;48.160;17.130;2022-11-27T01:47:32;9.10;77.20
18002;DHT22;9126;48.160;17.130;2022-11-27T01:50:07;9.10;77.20
18002;DHT22;9126;48.160;17.130;2022-11-27T01:52:38;9.00;77.20
18002;DHT22;9126;48.160;17.130;2022-11-27T01:55:09;9.00;77.20
18002;DHT22;9126;48.160;17.130;2022-11-27T01:57:41;9.00;77.20
18002;DHT22;9126;48.160;17.130;2022-11-27T02:00:12;8.90;77.20
18002;DHT22;9126;48.160;17.130;2022-11-27T02:02:40;8.90;77.20
18002;DHT22;9126;48.160;17.130;2022-11-27T02:05:08;8.90;77.20
18002;DHT22;9126;48.160;17.130;2022-11-27T02:07:35;8.80;77.10
18002;DHT22;9126;48.160;17.130;2022-11-27T02:10:04;8.80;77.20
18002;DHT22;9126;48.160;17.130;2022-11-27T02:12:38;8.80;77.30
18002;DHT22;9126;48.160;17.130;2022-11-27T02:15:10;8.80;77.30
18002;DHT22;9126;48.160;17.130;2022-11-27T02:17:43;8.70;77.20
18002;DHT22;9126;48.160;17.130;2022-11-27T02:20:22;8.70;77.30
18002;DHT22;9126;48.160;17.130;2022-11-27T02:23:31;8.70;77.30
18002;DHT22;9126;48.160;17.130;2022-11-27T02:26:19;8.60;77.30
18002;DHT22;9126;48.160;17.130;2022-11-27T02:28:59;8.70;77.40
18002;DHT22;9126;48.160;17.130;2022-11-27T02:31:33;8.60;77.20
18002;DHT22;9126;48.160;17.130;2022-11-27T02:34:15;8.60;77.40
18002;DHT22;9126;48.160;17.130;2022-11-27T02:36:49;8.50;77.50
18002;DHT22;9126;48.160;17.130;2022-11-27T02:39:20;8.60;77.60
18002;DHT22;9126;48.160;17.130;2022-11-27T02:41:51;8.50;77.60
18002;DHT22;9126;48.160;17.130;2022-11-27T02:44:23;8.60;77.80
18002;DHT22;9126;48.160;17.130;2022-11-27T02:46:52;8.60;77.80
18002;DHT22;9126;48.160;17.130;2022-11-27T02:49:20;8.60;77.80
18002;DHT22;9126;48.160;17.130;2022-11-27T02:51:51;8.60;77.80
18002;DHT22;9126;48.160;17.130;2022-11-27T02:54:22;8.60;77.80
18002;DHT22;9126;48.160;17.130;2022-11-27T02:56:51;8.50;77.70
18002;DHT22;9126;48.160;17.130;2022-11-27T02:59:22;8.50;77.80
18002;DHT22;9126;48.160;17.130;2022-11-27T03:01:53;8.40;77.80
18002;DHT22;9126;48.160;17.130;2022-11-27T03:04:26;8.30;77.90
18002;DHT22;9126;48.160;17.130;2022-11-27T03:07:00;8.30;78.00
18002;DHT22;9126;48.160;17.130;2022-11-27T03:09:33;8.20;78.00
18002;DHT22;9126;48.160;17.130;2022-11-27T03:12:00;8.20;78.00
18002;DHT22;9126;48.160;17.130;2022-11-27T03:14:29;8.10;78.00
18002;DHT22;9126;48.160;17.130;2022-11-27T03:17:03;8.00;78.10
18002;DHT22;9126;48.160;17.130;2022-11-27T03:19:38;7.90;78.30
18002;DHT22;9126;48.160;17.130;2022-11-27T03:22:07;7.90;78.30
18002;DHT22;9126;48.160;17.130;2022-11-27T03:24:34;7.80;78.50
18002;DHT22;9126;48.160;17.130;2022-11-27T03:27:03;7.80;78.60
18002;DHT22;9126;48.160;17.130;2022-11-27T03:29:36;7.70;78.60
18002;DHT22;9126;48.160;17.130;2022-11-27T03:32:05;7.60;78.80
18002;DHT22;9126;48.160;17.130;2022-11-27T03:34:32;7.70;78.90
18002;DHT22;9126;48.160;17.130;2022-11-27T03:37:00;7.70;79.00
18002;DHT22;9126;48.160;17.130;2022-11-27T03:39:28;7.60;79.00
18002;DHT22;9126;48.160;17.130;2022-11-27T03:42:04;7.60;79.10
18002;DHT22;9126;48.160;17.130;2022-11-27T03:44:41;7.60;79.70
18002;DHT22;9126;48.160;17.130;2022-11-27T03:47:15;7.60;79.10
18002;DHT22;9126;48.160;17.130;2022-11-27T03:49:56;7.60;79.20
18002;DHT22;9126;48.160;17.130;2022-11-27T03:52:32;7.60;79.20
18002;DHT22;9126;48.160;17.130;2022-11-27T03:55:06;7.50;79.40
18002;DHT22;9126;48.160;17.130;2022-11-27T03:57:37;7.50;79.40
18002;DHT22;9126;48.160;17.130;2022-11-27T04:00:10;7.40;79.40
18002;DHT22;9126;48.160;17.130;2022-11-27T04:02:40;7.50;79.60
18002;DHT22;9126;48.160;17.130;2022-11-27T04:05:08;7.50;79.60
18002;DHT22;9126;48.160;17.130;2022-11-27T04:07:35;7.40;79.60
18002;DHT22;9126;48.160;17.130;2022-11-27T04:10:03;7.50;79.70
18002;DHT22;9126;48.160;17.130;2022-11-27T04:12:31;7.50;79.70
18002;DHT22;9126;48.160;17.130;2022-11-27T04:14:58;7.50;79.70
18002;DHT22;9126;48.160;17.130;2022-11-27T04:17:26;7.50;79.70
18002;DHT22;9126;48.160;17.130;2022-11-27T04:19:53;7.50;79.70
18002;DHT22;9126;48.160;17.130;2022-11-27T04:22:20;7.50;79.80
18002;DHT22;9126;48.160;17.130;2022-11-27T04:24:48;7.50;79.80
18002;DHT22;9126;48.160;17.130;2022-11-27T04:27:15;7.50;79.90
18002;DHT22;9126;48.160;17.130;2022-11-27T04:29:42;7.40;79.80
18002;DHT22;9126;48.160;17.130;2022-11-27T04:32:09;7.50;80.00
18002;DHT22;9126;48.160;17.130;2022-11-27T04:34:37;7.50;80.10
18002;DHT22;9126;48.160;17.130;2022-11-27T04:37:04;7.50;80.10
18002;DHT22;9126;48.160;17.130;2022-11-27T04:39:31;7.60;80.30
18002;DHT22;9126;48.160;17.130;2022-11-27T04:41:58;7.70;80.30
18002;DHT22;9126;48.160;17.130;2022-11-27T04:44:25;7.70;80.20
18002;DHT22;9126;48.160;17.130;2022-11-27T04:46:52;7.80;80.20
18002;DHT22;9126;48.160;17.130;2022-11-27T04:49:19;7.80;80.10
18002;DHT22;9126;48.160;17.130;2022-11-27T04:51:47;7.80;80.00
18002;DHT22;9126;48.160;17.130;2022-11-27T04:54:14;7.80;80.00
18002;DHT22;9126;48.160;17.130;2022-11-27T04:56:41;7.80;80.00
18002;DHT22;9126;48.160;17.130;2022-11-27T04:59:08;7.70;79.90
18002;DHT22;9126;48.160;17.130;2022-11-27T05:01:35;7.70;79.90
18002;DHT22;9126;48.160;17.130;2022-11-27T05:04:02;7.70;79.90
18002;DHT22;9126;48.160;17.130;2022-11-27T05:06:29;7.60;79.90
18002;DHT22;9126;48.160;17.130;2022-11-27T05:08:58;7.50;79.90
18002;DHT22;9126;48.160;17.130;2022-11-27T05:11:27;7.40;80.00
18002;DHT22;9126;48.160;17.130;2022-11-27T05:13:54;7.30;80.00
18002;DHT22;9126;48.160;17.130;2022-11-27T05:16:35;7.20;80.10
18002;DHT22;9126;48.160;17.130;2022-11-27T05:19:02;7.20;80.30
18002;DHT22;9126;48.160;17.130;2022-11-27T05:21:29;7.10;80.30
18002;DHT22;9126;48.160;17.130;2022-11-27T05:23:57;7.10;80.50
18002;DHT22;9126;48.160;17.130;2022-11-27T05:26:25;7.10;80.50
18002;DHT22;9126;48.160;17.130;2022-11-27T05:28:52;7.10;80.60
18002;DHT22;9126;48.160;17.130;2022-11-27T05:31:19;7.10;80.60
18002;DHT22;9126;48.160;17.130;2022-11-27T05:33:46;7.10;80.60
18002;DHT22;9126;48.160;17.130;2022-11-27T05:36:16;7.10;80.60
18002;DHT22;9126;48.160;17.130;2022-11-27T05:38:43;7.10;80.70
18002;DHT22;9126;48.160;17.130;2022-11-27T05:41:11;7.10;80.80
18002;DHT22;9126;48.160;17.130;2022-11-27T05:43:38;7.10;80.80
18002;DHT22;9126;48.160;17.130;2022-11-27T05:46:07;7.10;80.80
18002;DHT22;9126;48.160;17.130;2022-11-27T05:48:35;7.10;80.70
18002;DHT22;9126;48.160;17.130;2022-11-27T05:51:03;7.10;81.40
18002;DHT22;9126;48.160;17.130;2022-11-27T05:53:30;7.10;80.80
18002;DHT22;9126;48.160;17.130;2022-11-27T05:56:00;7.10;80.80
18002;DHT22;9126;48.160;17.130;2022-11-27T05:58:29;7.10;80.80
18002;DHT22;9126;48.160;17.130;2022-11-27T06:00:56;7.00;80.70
18002;DHT22;9126;48.160;17.130;2022-11-27T06:03:23;7.00;80.80
18002;DHT22;9126;48.160;17.130;2022-11-27T06:05:50;6.90;80.80
18002;DHT22;9126;48.160;17.130;2022-11-27T06:08:17;6.90;81.00
18002;DHT22;9126;48.160;17.130;2022-11-27T06:10:44;6.90;81.00
18002;DHT22;9126;48.160;17.130;2022-11-27T06:13:12;6.90;81.00
18002;DHT22;9126;48.160;17.130;2022-11-27T06:15:40;7.00;81.00
18002;DHT22;9126;48.160;17.130;2022-11-27T06:18:08;7.00;81.00
18002;DHT22;9126;48.160;17.130;2022-11-27T06:20:36;7.00;81.00
18002;DHT22;9126;48.160;17.130;2022-11-27T06:23:03;7.00;81.00
18002;DHT22;9126;48.160;17.130;2022-11-27T06:25:30;7.00;81.00
18002;DHT22;9126;48.160;17.130;2022-11-27T06:27:57;6.90;81.00
18002;DHT22;9126;48.160;17.130;2022-11-27T06:30:24;6.90;81.10
18002;DHT22;9126;48.160;17.130;2022-11-27T06:32:52;6.90;81.20
18002;DHT22;9126;48.160;17.130;2022-11-27T06:35:19;6.90;81.20
18002;DHT22;9126;48.160;17.130;2022-11-27T06:37:47;6.90;81.20
18002;DHT22;9126;48.160;17.130;2022-11-27T06:40:14;6.90;81.20
18002;DHT22;9126;48.160;17.130;2022-11-27T06:42:41;6.80;81.20
18002;DHT22;9126;48.160;17.130;2022-11-27T06:45:09;6.90;81.90
18002;DHT22;9126;48.160;17.130;2022-11-27T06:47:36;6.90;81.40
18002;DHT22;9126;48.160;17.130;2022-11-27T06:50:05;6.90;81.30
18002;DHT22;9126;48.160;17.130;2022-11-27T06:52:32;7.00;81.50
18002;DHT22;9126;48.160;17.130;2022-11-27T06:54:59;7.00;81.40
18002;DHT22;9126;48.160;17.130;2022-11-27T06:57:26;7.10;81.30
18002;DHT22;9126;48.160;17.130;2022-11-27T06:59:53;7.10;81.30
18002;DHT22;9126;48.160;17.130;2022-11-27T07:02:20;7.10;81.30
18002;DHT22;9126;48.160;17.130;2022-11-27T07:04:48;7.10;81.30
18002;DHT22;9126;48.160;17.130;2022-11-27T07:07:19;7.00;81.30
18002;DHT22;9126;48.160;17.130;2022-11-27T07:09:46;7.10;81.40
18002;DHT22;9126;48.160;17.130;2022-11-27T07:12:13;7.10;81.40
18002;DHT22;9126;48.160;17.130;2022-11-27T07:14:40;7.10;81.30
18002;DHT22;9126;48.160;17.130;2022-11-27T07:17:07;7.10;81.40
18002;DHT22;9126;48.160;17.130;2022-11-27T07:19:34;7.10;81.40
18002;DHT22;9126;48.160;17.130;2022-11-27T07:22:01;7.10;81.40
18002;DHT22;9126;48.160;17.130;2022-11-27T07:24:30;7.10;81.50
18002;DHT22;9126;48.160;17.130;2022-11-27T07:26:57;7.20;81.50
18002;DHT22;9126;48.160;17.130;2022-11-27T07:29:24;7.20;81.50
18002;DHT22;9126;48.160;17.130;2022-11-27T07:31:51;7.20;81.40
18002;DHT22;9126;48.160;17.130;2022-11-27T07:34:17;7.30;81.40
18002;DHT22;9126;48.160;17.130;2022-11-27T07:36:44;7.30;81.40
18002;DHT22;9126;48.160;17.130;2022-11-27T07:39:11;7.30;81.30
18002;DHT22;9126;48.160;17.130;2022-11-27T07:41:40;7.40;82.00
18002;DHT22;9126;48.160;17.130;2022-11-27T07:44:07;7.50;81.40
18002;DHT22;9126;48.160;17.130;2022-11-27T07:46:34;7.50;81.30
18002;DHT22;9126;48.160;17.130;2022-11-27T07:49:02;7.60;81.20
18002;DHT22;9126;48.160;17.130;2022-11-27T07:51:29;7.60;81.20
18002;DHT22;9126;48.160;17.130;2022-11-27T07:53:56;7.70;81.20
18002;DHT22;9126;48.160;17.130;2022-11-27T07:56:23;7.70;81.10
18002;DHT22;9126;48.160;17.130;2022-11-27T07:58:51;7.70;81.20
18002;DHT22;9126;48.160;17.130;2022-11-27T08:01:18;7.80;81.20
18002;DHT22;9126;48.160;17.130;2022-11-27T08:03:46;7.80;81.20
18002;DHT22;9126;48.160;17.130;2022-11-27T08:06:15;7.90;81.20
18002;DHT22;9126;48.160;17.130;2022-11-27T08:08:43;8.00;81.30
18002;DHT22;9126;48.160;17.130;2022-11-27T08:11:21;8.00;81.30
18002;DHT22;9126;48.160;17.130;2022-11-27T08:13:54;8.10;81.40
18002;DHT22;9126;48.160;17.130;2022-11-27T08:16:21;8.20;81.40
18002;DHT22;9126;48.160;17.130;2022-11-27T08:18:48;8.20;81.30
18002;DHT22;9126;48.160;17.130;2022-11-27T08:21:15;8.20;81.40
18002;DHT22;9126;48.160;17.130;2022-11-27T08:23:42;8.30;81.30
18002;DHT22;9126;48.160;17.130;2022-11-27T08:26:10;8.30;81.30
18002;DHT22;9126;48.160;17.130;2022-11-27T08:28:38;8.30;81.40
18002;DHT22;9126;48.160;17.130;2022-11-27T08:31:09;8.30;81.40
18002;DHT22;9126;48.160;17.130;2022-11-27T08:33:36;8.30;81.40
18002;DHT22;9126;48.160;17.130;2022-11-27T08:36:03;8.30;81.50
18002;DHT22;9126;48.160;17.130;2022-11-27T08:38:31;8.30;81.40
18002;DHT22;9126;48.160;17.130;2022-11-27T08:41:00;8.40;81.40
18002;DHT22;9126;48.160;17.130;2022-11-27T08:43:28;8.50;81.40
18002;DHT22;9126;48.160;17.130;2022-11-27T08:45:56;8.60;81.30
18002;DHT22;9126;48.160;17.130;2022-11-27T08:48:25;8.60;81.30
18002;DHT22;9126;48.160;17.130;2022-11-27T08:50:52;8.70;81.30
18002;DHT22;9126;48.160;17.130;2022-11-27T08:53:19;8.80;81.20
18002;DHT22;9126;48.160;17.130;2022-11-27T08:55:46;8.80;81.00
18002;DHT22;9126;48.160;17.130;2022-11-27T08:58:14;8.80;81.00
18002;DHT22;9126;48.160;17.130;2022-11-27T09:00:41;8.80;80.90
18002;DHT22;9126;48.160;17.130;2022-11-27T09:03:10;8.90;80.90
18002;DHT22;9126;48.160;17.130;2022-11-27T09:05:40;8.90;80.90
18002;DHT22;9126;48.160;17.130;2022-11-27T09:08:10;8.90;80.90
18002;DHT22;9126;48.160;17.130;2022-11-27T09:10:41;9.00;80.80
18002;DHT22;9126;48.160;17.130;2022-11-27T09:13:07;9.10;80.80
18002;DHT22;9126;48.160;17.130;2022-11-27T09:15:34;9.20;80.70
18002;DHT22;9126;48.160;17.130;2022-11-27T09:18:01;9.20;80.50
18002;DHT22;9126;48.160;17.130;2022-11-27T09:20:28;9.30;80.50
18002;DHT22;9126;48.160;17.130;2022-11-27T09:22:57;9.40;80.40
18002;DHT22;9126;48.160;17.130;2022-11-27T09:25:27;9.40;80.20
18002;DHT22;9126;48.160;17.130;2022-11-27T09:27:54;9.40;80.20
18002;DHT22;9126;48.160;17.130;2022-11-27T09:30:21;9.50;80.10
18002;DHT22;9126;48.160;17.130;2022-11-27T09:32:48;9.50;80.00
18002;DHT22;9126;48.160;17.130;2022-11-27T09:35:15;9.50;79.90
18002;DHT22;9126;48.160;17.130;2022-11-27T09:37:42;9.60;79.80
18002;DHT22;9126;48.160;17.130;2022-11-27T09:42:44;9.50;79.60
18002;DHT22;9126;48.160;17.130;2022-11-27T09:45:14;9.50;79.50
18002;DHT22;9126;48.160;17.130;2022-11-27T09:47:47;9.60;79.40
18002;DHT22;9126;48.160;17.130;2022-11-27T09:50:16;9.60;79.40
18002;DHT22;9126;48.160;17.130;2022-11-27T09:52:47;9.70;79.20
18002;DHT22;9126;48.160;17.130;2022-11-27T09:55:21;9.80;79.20
18002;DHT22;9126;48.160;17.130;2022-11-27T09:57:57;10.00;79.00
18002;DHT22;9126;48.160;17.130;2022-11-27T10:00:25;10.20;78.80
18002;DHT22;9126;48.160;17.130;2022-11-27T10:02:52;10.20;78.50
18002;DHT22;9126;48.160;17.130;2022-11-27T10:05:22;10.40;79.00
18002;DHT22;9126;48.160;17.130;2022-11-27T10:08:11;10.50;78.10
18002;DHT22;9126;48.160;17.130;2022-11-27T10:10:48;10.60;77.80
18002;DHT22;9126;48.160;17.130;2022-11-27T10:13:31;10.70;77.50
18002;DHT22;9126;48.160;17.130;2022-11-27T10:16:04;10.80;77.30
18002;DHT22;9126;48.160;17.130;2022-11-27T10:18:38;10.90;77.10
18002;DHT22;9126;48.160;17.130;2022-11-27T10:21:10;10.90;76.80
18002;DHT22;9126;48.160;17.130;2022-11-27T10:23:45;10.90;76.50
18002;DHT22;9126;48.160;17.130;2022-11-27T10:26:19;11.00;76.40
18002;DHT22;9126;48.160;17.130;2022-11-27T10:28:54;11.20;76.20
18002;DHT22;9126;48.160;17.130;2022-11-27T10:31:32;11.20;75.70
18002;DHT22;9126;48.160;17.130;2022-11-27T10:34:02;11.20;75.50
18002;DHT22;9126;48.160;17.130;2022-11-27T10:36:40;11.30;75.20
18002;DHT22;9126;48.160;17.130;2022-11-27T10:39:25;11.30;75.00
18002;DHT22;9126;48.160;17.130;2022-11-27T10:42:00;11.30;74.70
18002;DHT22;9126;48.160;17.130;2022-11-27T10:44:34;11.30;74.40
18002;DHT22;9126;48.160;17.130;2022-11-27T10:47:04;11.20;74.20
18002;DHT22;9126;48.160;17.130;2022-11-27T10:49:34;11.30;74.10
18002;DHT22;9126;48.160;17.130;2022-11-27T10:52:05;11.30;73.80
18002;DHT22;9126;48.160;17.130;2022-11-27T10:54:36;11.40;73.60
18002;DHT22;9126;48.160;17.130;2022-11-27T10:57:17;11.40;73.30
18002;DHT22;9126;48.160;17.130;2022-11-27T11:00:00;11.50;73.20
18002;DHT22;9126;48.160;17.130;2022-11-27T11:02:31;11.50;72.90
18002;DHT22;9126;48.160;17.130;2022-11-27T11:05:09;11.60;72.60
18002;DHT22;9126;48.160;17.130;2022-11-27T11:07:36;11.60;72.30
18002;DHT22;9126;48.160;17.130;2022-11-27T11:10:15;11.70;72.00
18002;DHT22;9126;48.160;17.130;2022-11-27T11:12:49;11.80;71.50
18002;DHT22;9126;48.160;17.130;2022-11-27T11:15:16;11.90;71.00
18002;DHT22;9126;48.160;17.130;2022-11-27T11:17:44;12.00;70.50
18002;DHT22;9126;48.160;17.130;2022-11-27T11:20:16;12.00;69.80
18002;DHT22;9126;48.160;17.130;2022-11-27T11:22:45;11.90;69.00
18002;DHT22;9126;48.160;17.130;2022-11-27T11:25:16;11.90;68.40
18002;DHT22;9126;48.160;17.130;2022-11-27T11:27:44;12.00;67.90
18002;DHT22;9126;48.160;17.130;2022-11-27T11:30:22;12.10;67.50
18002;DHT22;9126;48.160;17.130;2022-11-27T11:32:57;12.30;67.00
18002;DHT22;9126;48.160;17.130;2022-11-27T11:35:28;12.40;66.50
18002;DHT22;9126;48.160;17.130;2022-11-27T11:37:57;12.40;66.00
18002;DHT22;9126;48.160;17.130;2022-11-27T11:40:28;12.50;65.70
18002;DHT22;9126;48.160;17.130;2022-11-27T11:42:57;12.70;65.40
18002;DHT22;9126;48.160;17.130;2022-11-27T11:45:28;12.70;64.90
18002;DHT22;9126;48.160;17.130;2022-11-27T11:47:56;12.70;64.50
18002;DHT22;9126;48.160;17.130;2022-11-27T11:50:28;12.80;64.20
18002;DHT22;9126;48.160;17.130;2022-11-27T11:53:01;12.70;63.90
18002;DHT22;9126;48.160;17.130;2022-11-27T11:55:35;12.70;63.80
18002;DHT22;9126;48.160;17.130;2022-11-27T11:58:24;12.70;63.70
18002;DHT22;9126;48.160;17.130;2022-11-27T12:01:03;12.80;63.60
18002;DHT22;9126;48.160;17.130;2022-11-27T12:03:43;12.90;63.40
18002;DHT22;9126;48.160;17.130;2022-11-27T12:06:28;12.90;63.20
18002;DHT22;9126;48.160;17.130;2022-11-27T12:09:11;12.80;63.00
18002;DHT22;9126;48.160;17.130;2022-11-27T12:11:44;12.80;62.90
18002;DHT22;9126;48.160;17.130;2022-11-27T12:14:20;12.80;62.80
18002;DHT22;9126;48.160;17.130;2022-11-27T12:17:03;12.70;62.70
18002;DHT22;9126;48.160;17.130;2022-11-27T12:19:52;12.60;62.60
18002;DHT22;9126;48.160;17.130;2022-11-27T12:22:36;12.60;62.50
18002;DHT22;9126;48.160;17.130;2022-11-27T12:25:20;12.50;62.40
18002;DHT22;9126;48.160;17.130;2022-11-27T12:28:01;12.50;62.40
18002;DHT22;9126;48.160;17.130;2022-11-27T12:30:38;12.50;62.40
18002;DHT22;9126;48.160;17.130;2022-11-27T12:33:24;12.60;62.20
18002;DHT22;9126;48.160;17.130;2022-11-27T12:35:59;12.70;62.10
18002;DHT22;9126;48.160;17.130;2022-11-27T12:38:44;12.70;62.10
18002;DHT22;9126;48.160;17.130;2022-11-27T12:41:24;12.80;62.00
18002;DHT22;9126;48.160;17.130;2022-11-27T12:43:54;12.80;61.90
18002;DHT22;9126;48.160;17.130;2022-11-27T12:46:29;12.80;61.80
18002;DHT22;9126;48.160;17.130;2022-11-27T12:49:04;12.70;61.70
18002;DHT22;9126;48.160;17.130;2022-11-27T12:51:41;12.70;61.70
18002;DHT22;9126;48.160;17.130;2022-11-27T12:54:14;12.70;61.70
18002;DHT22;9126;48.160;17.130;2022-11-27T12:56:44;12.70;61.80
18002;DHT22;9126;48.160;17.130;2022-11-27T12:59:17;12.70;61.80
18002;DHT22;9126;48.160;17.130;2022-11-27T13:01:51;12.60;61.80
18002;DHT22;9126;48.160;17.130;2022-11-27T13:04:28;12.60;61.80
18002;DHT22;9126;48.160;17.130;2022-11-27T13:06:59;12.70;61.80
18002;DHT22;9126;48.160;17.130;2022-11-27T13:09:36;12.70;61.80
18002;DHT22;9126;48.160;17.130;2022-11-27T13:12:08;12.70;61.70
18002;DHT22;9126;48.160;17.130;2022-11-27T13:14:37;12.70;61.60
18002;DHT22;9126;48.160;17.130;2022-11-27T13:17:10;12.70;61.30
18002;DHT22;9126;48.160;17.130;2022-11-27T13:19:45;12.70;61.20
18002;DHT22;9126;48.160;17.130;2022-11-27T13:22:18;12.60;60.90
18002;DHT22;9126;48.160;17.130;2022-11-27T13:24:52;12.50;60.80
18002;DHT22;9126;48.160;17.130;2022-11-27T13:27:22;12.40;60.60
18002;DHT22;9126;48.160;17.130;2022-11-27T13:29:53;12.50;60.70
18002;DHT22;9126;48.160;17.130;2022-11-27T13:32:23;12.50;60.60
18002;DHT22;9126;48.160;17.130;2022-11-27T13:34:55;12.40;60.50
18002;DHT22;9126;48.160;17.130;2022-11-27T13:37:27;12.30;60.50
18002;DHT22;9126;48.160;17.130;2022-11-27T13:39:59;12.20;60.60
18002;DHT22;9126;48.160;17.130;2022-11-27T13:42:27;12.30;60.70
18002;DHT22;9126;48.160;17.130;2022-11-27T13:44:56;12.30;60.70
18002;DHT22;9126;48.160;17.130;2022-11-27T13:47:26;12.40;60.60
18002;DHT22;9126;48.160;17.130;2022-11-27T13:50:00;12.40;60.60
18002;DHT22;9126;48.160;17.130;2022-11-27T13:52:27;12.40;60.50
18002;DHT22;9126;48.160;17.130;2022-11-27T13:54:56;12.40;60.40
18002;DHT22;9126;48.160;17.130;2022-11-27T13:57:24;12.40;60.30
18002;DHT22;9126;48.160;17.130;2022-11-27T13:59:59;12.50;60.20
18002;DHT22;9126;48.160;17.130;2022-11-27T14:02:39;12.60;60.20
18002;DHT22;9126;48.160;17.130;2022-11-27T14:05:08;12.60;60.10
18002;DHT22;9126;48.160;17.130;2022-11-27T14:07:38;12.60;60.20
18002;DHT22;9126;48.160;17.130;2022-11-27T14:10:11;12.60;60.20
18002;DHT22;9126;48.160;17.130;2022-11-27T14:12:39;12.50;60.30
18002;DHT22;9126;48.160;17.130;2022-11-27T14:15:09;12.50;60.40
18002;DHT22;9126;48.160;17.130;2022-11-27T14:17:48;12.50;60.60
18002;DHT22;9126;48.160;17.130;2022-11-27T14:20:24;12.50;60.70
18002;DHT22;9126;48.160;17.130;2022-11-27T14:22:53;12.50;60.80
18002;DHT22;9126;48.160;17.130;2022-11-27T14:25:23;12.50;60.90
18002;DHT22;9126;48.160;17.130;2022-11-27T14:27:56;12.50;61.00
18002;DHT22;9126;48.160;17.130;2022-11-27T14:30:29;12.50;61.10
18002;DHT22;9126;48.160;17.130;2022-11-27T14:32:56;12.40;61.10
18002;DHT22;9126;48.160;17.130;2022-11-27T14:35:26;12.40;61.20
18002;DHT22;9126;48.160;17.130;2022-11-27T14:37:53;12.40;61.30
18002;DHT22;9126;48.160;17.130;2022-11-27T14:40:23;12.40;61.30
18002;DHT22;9126;48.160;17.130;2022-11-27T14:42:50;12.40;61.40
18002;DHT22;9126;48.160;17.130;2022-11-27T14:45:21;12.30;61.30
18002;DHT22;9126;48.160;17.130;2022-11-27T14:47:50;12.30;61.50
18002;DHT22;9126;48.160;17.130;2022-11-27T14:50:19;12.30;61.50
18002;DHT22;9126;48.160;17.130;2022-11-27T14:52:51;12.30;61.60
18002;DHT22;9126;48.160;17.130;2022-11-27T14:55:20;12.30;61.60
18002;DHT22;9126;48.160;17.130;2022-11-27T14:57:48;12.20;61.60
18002;DHT22;9126;48.160;17.130;2022-11-27T15:00:18;12.20;61.70
18002;DHT22;9126;48.160;17.130;2022-11-27T15:02:47;12.00;61.80
18002;DHT22;9126;48.160;17.130;2022-11-27T15:05:20;11.90;62.00
18002;DHT22;9126;48.160;17.130;2022-11-27T15:07:50;11.70;62.20
18002;DHT22;9126;48.160;17.130;2022-11-27T15:10:36;11.60;62.40
18002;DHT22;9126;48.160;17.130;2022-11-27T15:13:05;11.40;62.90
18002;DHT22;9126;48.160;17.130;2022-11-27T15:15:37;11.30;63.50
18002;DHT22;9126;48.160;17.130;2022-11-27T15:18:06;11.10;64.00
18002;DHT22;9126;48.160;17.130;2022-11-27T15:20:37;11.00;64.80
18002;DHT22;9126;48.160;17.130;2022-11-27T15:23:14;11.00;65.40
18002;DHT22;9126;48.160;17.130;2022-11-27T15:25:43;10.90;65.90
18002;DHT22;9126;48.160;17.130;2022-11-27T15:28:28;10.70;66.50
18002;DHT22;9126;48.160;17.130;2022-11-27T15:30:56;10.50;67.30
18002;DHT22;9126;48.160;17.130;2022-11-27T15:33:24;10.20;68.00
18002;DHT22;9126;48.160;17.130;2022-11-27T15:35:52;10.10;68.80
18002;DHT22;9126;48.160;17.130;2022-11-27T15:38:20;10.00;69.40
18002;DHT22;9126;48.160;17.130;2022-11-27T15:40:56;9.80;70.00
18002;DHT22;9126;48.160;17.130;2022-11-27T15:43:23;9.70;70.60
18002;DHT22;9126;48.160;17.130;2022-11-27T15:45:50;9.70;71.10
18002;DHT22;9126;48.160;17.130;2022-11-27T15:48:18;9.60;71.60
18002;DHT22;9126;48.160;17.130;2022-11-27T15:50:46;9.70;72.00
18002;DHT22;9126;48.160;17.130;2022-11-27T15:53:13;9.80;72.30
18002;DHT22;9126;48.160;17.130;2022-11-27T15:55:42;9.90;72.30
18002;DHT22;9126;48.160;17.130;2022-11-27T15:58:09;9.80;72.30
18002;DHT22;9126;48.160;17.130;2022-11-27T16:00:36;9.80;72.40
18002;DHT22;9126;48.160;17.130;2022-11-27T16:03:03;9.70;72.50